sensor_id;sensor_type;location;lat;lon;timestamp;P1;durP1;ratioP1;P2;durP2;ratioP2
52730;SDS011;38624;53.242;6.974;2023-04-02T00:00:09;5.15;;;2.78;;
52730;SDS011;38624;53.242;6.974;2023-04-02T00:02:55;6.72;;;2.80;;
52730;SDS011;38624;53.242;6.974;2023-04-02T00:08:01;8.75;;;2.95;;
52730;SDS011;38624;53.242;6.974;2023-04-02T00:10:35;8.35;;;3.17;;
52730;SDS011;38624;53.242;6.974;2023-04-02T00:13:04;7.25;;;2.90;;
52730;SDS011;38624;53.242;6.974;2023-04-02T00:15:45;6.00;;;2.72;;
52730;SDS011;38624;53.242;6.974;2023-04-02T00:18:16;7.47;;;2.97;;
52730;SDS011;38624;53.242;6.974;2023-04-02T00:20:48;5.93;;;2.70;;
52730;SDS011;38624;53.242;6.974;2023-04-02T00:23:17;5.85;;;2.80;;
52730;SDS011;38624;53.242;6.974;2023-04-02T00:25:44;5.78;;;2.35;;
52730;SDS011;38624;53.242;6.974;2023-04-02T00:28:15;5.25;;;2.95;;
52730;SDS011;38624;53.242;6.974;2023-04-02T00:33:14;8.60;;;3.30;;
52730;SDS011;38624;53.242;6.974;2023-04-02T00:35:41;8.32;;;3.00;;
52730;SDS011;38624;53.242;6.974;2023-04-02T00:38:10;6.13;;;2.67;;
52730;SDS011;38624;53.242;6.974;2023-04-02T00:40:45;7.15;;;2.78;;
52730;SDS011;38624;53.242;6.974;2023-04-02T00:43:12;7.90;;;3.27;;
52730;SDS011;38624;53.242;6.974;2023-04-02T00:45:40;5.63;;;3.10;;
52730;SDS011;38624;53.242;6.974;2023-04-02T00:49:02;8.00;;;3.38;;
52730;SDS011;38624;53.242;6.974;2023-04-02T00:51:31;7.55;;;2.80;;
52730;SDS011;38624;53.242;6.974;2023-04-02T00:54:02;5.82;;;2.67;;
52730;SDS011;38624;53.242;6.974;2023-04-02T00:56:31;5.80;;;2.40;;
52730;SDS011;38624;53.242;6.974;2023-04-02T00:59:03;9.77;;;2.75;;
52730;SDS011;38624;53.242;6.974;2023-04-02T01:01:34;4.90;;;2.80;;
52730;SDS011;38624;53.242;6.974;2023-04-02T01:04:02;7.07;;;2.85;;
52730;SDS011;38624;53.242;6.974;2023-04-02T01:06:34;5.20;;;2.53;;
52730;SDS011;38624;53.242;6.974;2023-04-02T01:11:42;5.93;;;2.50;;
52730;SDS011;38624;53.242;6.974;2023-04-02T01:17:16;7.78;;;2.63;;
52730;SDS011;38624;53.242;6.974;2023-04-02T01:22:43;6.05;;;2.40;;
52730;SDS011;38624;53.242;6.974;2023-04-02T01:25:16;5.88;;;2.50;;
52730;SDS011;38624;53.242;6.974;2023-04-02T01:27:50;7.53;;;2.28;;
52730;SDS011;38624;53.242;6.974;2023-04-02T01:30:21;9.15;;;2.42;;
52730;SDS011;38624;53.242;6.974;2023-04-02T01:32:48;3.75;;;1.92;;
52730;SDS011;38624;53.242;6.974;2023-04-02T01:35:14;3.60;;;2.20;;
52730;SDS011;38624;53.242;6.974;2023-04-02T01:43:48;5.22;;;2.10;;
52730;SDS011;38624;53.242;6.974;2023-04-02T01:46:05;4.97;;;2.08;;
52730;SDS011;38624;53.242;6.974;2023-04-02T01:48:51;5.22;;;2.20;;
52730;SDS011;38624;53.242;6.974;2023-04-02T01:51:25;4.55;;;2.10;;
52730;SDS011;38624;53.242;6.974;2023-04-02T01:53:57;5.57;;;2.25;;
52730;SDS011;38624;53.242;6.974;2023-04-02T01:56:29;5.75;;;2.25;;
52730;SDS011;38624;53.242;6.974;2023-04-02T01:58:55;6.00;;;2.22;;
52730;SDS011;38624;53.242;6.974;2023-04-02T02:01:23;6.57;;;2.17;;
52730;SDS011;38624;53.242;6.974;2023-04-02T02:03:55;5.07;;;1.90;;
52730;SDS011;38624;53.242;6.974;2023-04-02T02:06:21;5.15;;;2.03;;
52730;SDS011;38624;53.242;6.974;2023-04-02T02:08:48;7.57;;;2.38;;
52730;SDS011;38624;53.242;6.974;2023-04-02T02:11:17;4.63;;;2.00;;
52730;SDS011;38624;53.242;6.974;2023-04-02T02:14:08;6.03;;;2.10;;
52730;SDS011;38624;53.242;6.974;2023-04-02T02:16:58;4.93;;;2.10;;
52730;SDS011;38624;53.242;6.974;2023-04-02T02:19:27;3.80;;;1.90;;
52730;SDS011;38624;53.242;6.974;2023-04-02T02:22:10;3.28;;;1.90;;
52730;SDS011;38624;53.242;6.974;2023-04-02T02:24:38;8.65;;;2.17;;
52730;SDS011;38624;53.242;6.974;2023-04-02T02:29:48;4.22;;;1.70;;
52730;SDS011;38624;53.242;6.974;2023-04-02T02:32:19;5.30;;;2.05;;
52730;SDS011;38624;53.242;6.974;2023-04-02T02:34:53;6.35;;;1.75;;
52730;SDS011;38624;53.242;6.974;2023-04-02T02:37:28;5.10;;;2.00;;
52730;SDS011;38624;53.242;6.974;2023-04-02T02:39:59;4.95;;;1.80;;
52730;SDS011;38624;53.242;6.974;2023-04-02T02:42:31;6.10;;;2.17;;
52730;SDS011;38624;53.242;6.974;2023-04-02T02:45:01;4.68;;;1.80;;
52730;SDS011;38624;53.242;6.974;2023-04-02T02:47:32;4.85;;;2.15;;
52730;SDS011;38624;53.242;6.974;2023-04-02T02:50:05;4.97;;;1.77;;
52730;SDS011;38624;53.242;6.974;2023-04-02T02:52:36;5.25;;;1.70;;
52730;SDS011;38624;53.242;6.974;2023-04-02T02:55:10;4.10;;;2.00;;
52730;SDS011;38624;53.242;6.974;2023-04-02T02:57:50;8.15;;;2.00;;
52730;SDS011;38624;53.242;6.974;2023-04-02T03:00:20;4.67;;;2.17;;
52730;SDS011;38624;53.242;6.974;2023-04-02T03:02:48;4.97;;;1.70;;
52730;SDS011;38624;53.242;6.974;2023-04-02T03:05:17;4.88;;;2.20;;
52730;SDS011;38624;53.242;6.974;2023-04-02T03:07:49;5.00;;;1.93;;
52730;SDS011;38624;53.242;6.974;2023-04-02T03:10:29;4.25;;;1.98;;
52730;SDS011;38624;53.242;6.974;2023-04-02T03:13:01;5.53;;;1.95;;
52730;SDS011;38624;53.242;6.974;2023-04-02T03:15:46;5.15;;;1.95;;
52730;SDS011;38624;53.242;6.974;2023-04-02T03:18:41;4.97;;;2.30;;
52730;SDS011;38624;53.242;6.974;2023-04-02T03:21:35;5.70;;;1.73;;
52730;SDS011;38624;53.242;6.974;2023-04-02T03:24:17;3.53;;;1.65;;
52730;SDS011;38624;53.242;6.974;2023-04-02T03:29:42;6.20;;;1.80;;
52730;SDS011;38624;53.242;6.974;2023-04-02T03:32:16;5.30;;;1.90;;
52730;SDS011;38624;53.242;6.974;2023-04-02T03:34:48;5.38;;;1.83;;
52730;SDS011;38624;53.242;6.974;2023-04-02T03:40:20;6.60;;;1.90;;
52730;SDS011;38624;53.242;6.974;2023-04-02T03:45:43;10.03;;;2.30;;
52730;SDS011;38624;53.242;6.974;2023-04-02T03:48:46;5.10;;;2.20;;
52730;SDS011;38624;53.242;6.974;2023-04-02T03:53:54;7.00;;;2.10;;
52730;SDS011;38624;53.242;6.974;2023-04-02T03:56:41;5.07;;;1.85;;
52730;SDS011;38624;53.242;6.974;2023-04-02T04:01:42;10.10;;;1.90;;
52730;SDS011;38624;53.242;6.974;2023-04-02T04:04:15;4.63;;;1.70;;
52730;SDS011;38624;53.242;6.974;2023-04-02T04:06:44;6.40;;;1.90;;
52730;SDS011;38624;53.242;6.974;2023-04-02T04:12:14;5.37;;;1.83;;
52730;SDS011;38624;53.242;6.974;2023-04-02T04:14:48;6.10;;;2.00;;
52730;SDS011;38624;53.242;6.974;2023-04-02T04:17:30;7.32;;;1.95;;
52730;SDS011;38624;53.242;6.974;2023-04-02T04:22:38;5.55;;;1.70;;
52730;SDS011;38624;53.242;6.974;2023-04-02T04:25:05;7.10;;;2.03;;
52730;SDS011;38624;53.242;6.974;2023-04-02T04:27:43;4.97;;;1.80;;
52730;SDS011;38624;53.242;6.974;2023-04-02T04:30:38;6.90;;;2.25;;
52730;SDS011;38624;53.242;6.974;2023-04-02T04:33:19;5.80;;;1.87;;
52730;SDS011;38624;53.242;6.974;2023-04-02T04:36:13;3.87;;;1.70;;
52730;SDS011;38624;53.242;6.974;2023-04-02T04:38:54;6.50;;;1.83;;
52730;SDS011;38624;53.242;6.974;2023-04-02T04:41:33;9.30;;;2.40;;
52730;SDS011;38624;53.242;6.974;2023-04-02T04:44:05;5.20;;;1.93;;
52730;SDS011;38624;53.242;6.974;2023-04-02T04:46:47;4.00;;;1.70;;
52730;SDS011;38624;53.242;6.974;2023-04-02T04:49:48;8.67;;;2.20;;
52730;SDS011;38624;53.242;6.974;2023-04-02T04:54:40;7.23;;;1.97;;
52730;SDS011;38624;53.242;6.974;2023-04-02T04:57:06;6.80;;;2.10;;
52730;SDS011;38624;53.242;6.974;2023-04-02T05:00:04;6.67;;;1.63;;
52730;SDS011;38624;53.242;6.974;2023-04-02T05:02:37;6.70;;;2.00;;
52730;SDS011;38624;53.242;6.974;2023-04-02T05:05:26;8.90;;;1.90;;
52730;SDS011;38624;53.242;6.974;2023-04-02T05:07:58;6.30;;;1.80;;
52730;SDS011;38624;53.242;6.974;2023-04-02T05:10:32;4.63;;;1.63;;
52730;SDS011;38624;53.242;6.974;2023-04-02T05:13:18;5.67;;;1.67;;
52730;SDS011;38624;53.242;6.974;2023-04-02T05:18:40;5.43;;;1.80;;
52730;SDS011;38624;53.242;6.974;2023-04-02T05:21:16;4.67;;;1.50;;
52730;SDS011;38624;53.242;6.974;2023-04-02T05:27:00;9.33;;;2.03;;
52730;SDS011;38624;53.242;6.974;2023-04-02T05:32:33;5.77;;;1.93;;
52730;SDS011;38624;53.242;6.974;2023-04-02T05:35:04;5.13;;;1.70;;
52730;SDS011;38624;53.242;6.974;2023-04-02T05:37:31;4.90;;;1.45;;
52730;SDS011;38624;53.242;6.974;2023-04-02T05:39:59;5.75;;;1.70;;
52730;SDS011;38624;53.242;6.974;2023-04-02T05:42:37;6.67;;;2.00;;
52730;SDS011;38624;53.242;6.974;2023-04-02T05:45:12;8.17;;;1.63;;
52730;SDS011;38624;53.242;6.974;2023-04-02T05:47:49;5.93;;;1.87;;
52730;SDS011;38624;53.242;6.974;2023-04-02T05:50:29;7.30;;;1.90;;
52730;SDS011;38624;53.242;6.974;2023-04-02T05:53:09;5.00;;;1.60;;
52730;SDS011;38624;53.242;6.974;2023-04-02T05:58:33;6.88;;;1.85;;
52730;SDS011;38624;53.242;6.974;2023-04-02T06:01:04;4.72;;;1.80;;
52730;SDS011;38624;53.242;6.974;2023-04-02T06:06:13;5.82;;;1.73;;
52730;SDS011;38624;53.242;6.974;2023-04-02T06:09:21;6.22;;;1.60;;
52730;SDS011;38624;53.242;6.974;2023-04-02T06:11:45;6.78;;;1.65;;
52730;SDS011;38624;53.242;6.974;2023-04-02T06:14:15;5.72;;;1.90;;
52730;SDS011;38624;53.242;6.974;2023-04-02T06:16:42;5.85;;;2.15;;
52730;SDS011;38624;53.242;6.974;2023-04-02T06:19:20;5.80;;;1.80;;
52730;SDS011;38624;53.242;6.974;2023-04-02T06:21:51;5.22;;;1.70;;
52730;SDS011;38624;53.242;6.974;2023-04-02T06:24:23;4.93;;;1.70;;
52730;SDS011;38624;53.242;6.974;2023-04-02T06:26:56;6.63;;;1.50;;
52730;SDS011;38624;53.242;6.974;2023-04-02T06:31:57;3.20;;;1.60;;
52730;SDS011;38624;53.242;6.974;2023-04-02T06:34:25;2.97;;;1.60;;
52730;SDS011;38624;53.242;6.974;2023-04-02T06:36:57;3.00;;;1.45;;
52730;SDS011;38624;53.242;6.974;2023-04-02T06:39:43;3.33;;;1.42;;
52730;SDS011;38624;53.242;6.974;2023-04-02T06:42:14;6.82;;;2.00;;
52730;SDS011;38624;53.242;6.974;2023-04-02T06:44:43;7.13;;;1.50;;
52730;SDS011;38624;53.242;6.974;2023-04-02T06:47:18;7.03;;;1.40;;
52730;SDS011;38624;53.242;6.974;2023-04-02T06:52:35;2.67;;;1.30;;
52730;SDS011;38624;53.242;6.974;2023-04-02T06:55:20;6.20;;;1.65;;
52730;SDS011;38624;53.242;6.974;2023-04-02T06:57:56;5.97;;;1.60;;
52730;SDS011;38624;53.242;6.974;2023-04-02T07:00:24;1.80;;;1.13;;
52730;SDS011;38624;53.242;6.974;2023-04-02T07:03:05;5.30;;;1.50;;
52730;SDS011;38624;53.242;6.974;2023-04-02T07:05:37;6.65;;;1.40;;
52730;SDS011;38624;53.242;6.974;2023-04-02T07:08:03;4.60;;;1.50;;
52730;SDS011;38624;53.242;6.974;2023-04-02T07:10:28;7.18;;;1.42;;
52730;SDS011;38624;53.242;6.974;2023-04-02T07:12:54;5.88;;;1.48;;
52730;SDS011;38624;53.242;6.974;2023-04-02T07:15:20;2.72;;;1.40;;
52730;SDS011;38624;53.242;6.974;2023-04-02T07:17:48;5.53;;;1.50;;
52730;SDS011;38624;53.242;6.974;2023-04-02T07:20:23;2.78;;;1.15;;
52730;SDS011;38624;53.242;6.974;2023-04-02T07:22:51;6.03;;;1.58;;
52730;SDS011;38624;53.242;6.974;2023-04-02T07:25:17;5.45;;;1.40;;
52730;SDS011;38624;53.242;6.974;2023-04-02T07:27:42;4.63;;;1.60;;
52730;SDS011;38624;53.242;6.974;2023-04-02T07:30:08;5.90;;;1.58;;
52730;SDS011;38624;53.242;6.974;2023-04-02T07:32:34;4.55;;;1.52;;
52730;SDS011;38624;53.242;6.974;2023-04-02T07:35:01;3.63;;;1.42;;
52730;SDS011;38624;53.242;6.974;2023-04-02T07:37:27;3.00;;;1.33;;
52730;SDS011;38624;53.242;6.974;2023-04-02T07:39:52;3.88;;;1.30;;
52730;SDS011;38624;53.242;6.974;2023-04-02T07:42:18;4.05;;;1.30;;
52730;SDS011;38624;53.242;6.974;2023-04-02T07:44:44;4.93;;;1.42;;
52730;SDS011;38624;53.242;6.974;2023-04-02T07:47:10;5.75;;;1.60;;
52730;SDS011;38624;53.242;6.974;2023-04-02T07:49:35;4.97;;;1.40;;
52730;SDS011;38624;53.242;6.974;2023-04-02T07:52:01;5.95;;;1.48;;
52730;SDS011;38624;53.242;6.974;2023-04-02T07:54:27;4.18;;;1.20;;
52730;SDS011;38624;53.242;6.974;2023-04-02T07:59:20;3.67;;;1.17;;
52730;SDS011;38624;53.242;6.974;2023-04-02T08:01:46;2.85;;;1.33;;
52730;SDS011;38624;53.242;6.974;2023-04-02T08:04:19;4.35;;;1.27;;
52730;SDS011;38624;53.242;6.974;2023-04-02T08:06:46;4.10;;;1.33;;
52730;SDS011;38624;53.242;6.974;2023-04-02T08:09:13;5.53;;;1.70;;
52730;SDS011;38624;53.242;6.974;2023-04-02T08:11:39;4.40;;;1.48;;
52730;SDS011;38624;53.242;6.974;2023-04-02T08:14:06;3.90;;;1.30;;
52730;SDS011;38624;53.242;6.974;2023-04-02T08:19:28;3.42;;;1.27;;
52730;SDS011;38624;53.242;6.974;2023-04-02T08:21:53;3.67;;;1.65;;
52730;SDS011;38624;53.242;6.974;2023-04-02T08:24:20;3.78;;;1.35;;
52730;SDS011;38624;53.242;6.974;2023-04-02T08:26:47;4.47;;;1.40;;
52730;SDS011;38624;53.242;6.974;2023-04-02T08:31:39;4.35;;;1.60;;
52730;SDS011;38624;53.242;6.974;2023-04-02T08:34:05;5.25;;;1.60;;
52730;SDS011;38624;53.242;6.974;2023-04-02T08:36:32;5.40;;;1.70;;
52730;SDS011;38624;53.242;6.974;2023-04-02T08:39:00;8.23;;;1.90;;
52730;SDS011;38624;53.242;6.974;2023-04-02T08:41:26;7.93;;;1.83;;
52730;SDS011;38624;53.242;6.974;2023-04-02T08:44:00;3.53;;;1.33;;
52730;SDS011;38624;53.242;6.974;2023-04-02T08:49:14;4.60;;;1.73;;
52730;SDS011;38624;53.242;6.974;2023-04-02T08:51:43;3.83;;;1.65;;
52730;SDS011;38624;53.242;6.974;2023-04-02T08:54:14;4.53;;;1.35;;
52730;SDS011;38624;53.242;6.974;2023-04-02T08:59:42;5.07;;;1.58;;
52730;SDS011;38624;53.242;6.974;2023-04-02T09:02:16;6.75;;;1.42;;
52730;SDS011;38624;53.242;6.974;2023-04-02T09:04:55;5.55;;;1.92;;
52730;SDS011;38624;53.242;6.974;2023-04-02T09:07:22;4.47;;;1.65;;
52730;SDS011;38624;53.242;6.974;2023-04-02T09:09:48;4.80;;;1.50;;
52730;SDS011;38624;53.242;6.974;2023-04-02T09:12:18;8.90;;;1.60;;
52730;SDS011;38624;53.242;6.974;2023-04-02T09:17:22;4.03;;;1.42;;
52730;SDS011;38624;53.242;6.974;2023-04-02T09:22:53;4.45;;;1.40;;
52730;SDS011;38624;53.242;6.974;2023-04-02T09:25:24;6.10;;;1.50;;
52730;SDS011;38624;53.242;6.974;2023-04-02T09:27:52;4.07;;;1.45;;
52730;SDS011;38624;53.242;6.974;2023-04-02T09:33:19;4.13;;;1.38;;
52730;SDS011;38624;53.242;6.974;2023-04-02T09:36:04;4.32;;;1.50;;
52730;SDS011;38624;53.242;6.974;2023-04-02T09:38:30;3.03;;;1.40;;
52730;SDS011;38624;53.242;6.974;2023-04-02T09:40:58;4.50;;;1.30;;
52730;SDS011;38624;53.242;6.974;2023-04-02T09:45:54;4.97;;;1.40;;
52730;SDS011;38624;53.242;6.974;2023-04-02T09:48:24;2.88;;;1.30;;
52730;SDS011;38624;53.242;6.974;2023-04-02T09:53:40;4.15;;;1.15;;
52730;SDS011;38624;53.242;6.974;2023-04-02T09:56:17;4.38;;;1.20;;
52730;SDS011;38624;53.242;6.974;2023-04-02T10:01:40;5.30;;;1.17;;
52730;SDS011;38624;53.242;6.974;2023-04-02T10:09:59;4.97;;;1.10;;
52730;SDS011;38624;53.242;6.974;2023-04-02T10:12:27;2.47;;;1.27;;
52730;SDS011;38624;53.242;6.974;2023-04-02T10:14:58;7.07;;;1.40;;
52730;SDS011;38624;53.242;6.974;2023-04-02T10:20:00;3.75;;;1.48;;
52730;SDS011;38624;53.242;6.974;2023-04-02T10:22:35;3.20;;;1.30;;
52730;SDS011;38624;53.242;6.974;2023-04-02T10:25:04;2.75;;;1.15;;
52730;SDS011;38624;53.242;6.974;2023-04-02T10:27:53;1.60;;;1.17;;
52730;SDS011;38624;53.242;6.974;2023-04-02T10:30:40;4.05;;;1.20;;
52730;SDS011;38624;53.242;6.974;2023-04-02T10:33:28;1.83;;;1.10;;
52730;SDS011;38624;53.242;6.974;2023-04-02T10:36:06;4.57;;;1.13;;
52730;SDS011;38624;53.242;6.974;2023-04-02T10:41:25;2.00;;;0.93;;
52730;SDS011;38624;53.242;6.974;2023-04-02T10:52:11;2.75;;;1.10;;
52730;SDS011;38624;53.242;6.974;2023-04-02T10:54:49;2.78;;;1.17;;
52730;SDS011;38624;53.242;6.974;2023-04-02T10:57:38;2.45;;;1.20;;
52730;SDS011;38624;53.242;6.974;2023-04-02T11:10:30;3.33;;;1.05;;
52730;SDS011;38624;53.242;6.974;2023-04-02T11:13:12;2.03;;;0.90;;
52730;SDS011;38624;53.242;6.974;2023-04-02T11:15:44;2.67;;;0.90;;
52730;SDS011;38624;53.242;6.974;2023-04-02T11:18:26;1.90;;;0.90;;
52730;SDS011;38624;53.242;6.974;2023-04-02T11:23:25;2.50;;;0.90;;
52730;SDS011;38624;53.242;6.974;2023-04-02T11:26:10;2.42;;;0.85;;
52730;SDS011;38624;53.242;6.974;2023-04-02T11:29:16;3.20;;;1.23;;
52730;SDS011;38624;53.242;6.974;2023-04-02T11:32:39;8.80;;;2.95;;
52730;SDS011;38624;53.242;6.974;2023-04-02T11:37:31;3.33;;;1.23;;
52730;SDS011;38624;53.242;6.974;2023-04-02T11:42:42;2.15;;;1.00;;
52730;SDS011;38624;53.242;6.974;2023-04-02T11:48:32;1.40;;;0.82;;
52730;SDS011;38624;53.242;6.974;2023-04-02T11:50:40;1.65;;;0.82;;
52730;SDS011;38624;53.242;6.974;2023-04-02T12:11:50;1.45;;;0.70;;
52730;SDS011;38624;53.242;6.974;2023-04-02T12:14:31;1.60;;;1.00;;
52730;SDS011;38624;53.242;6.974;2023-04-02T12:17:04;1.95;;;0.80;;
52730;SDS011;38624;53.242;6.974;2023-04-02T12:19:38;1.67;;;0.77;;
52730;SDS011;38624;53.242;6.974;2023-04-02T12:22:04;2.13;;;0.85;;
52730;SDS011;38624;53.242;6.974;2023-04-02T12:24:30;2.30;;;0.70;;
52730;SDS011;38624;53.242;6.974;2023-04-02T12:29:53;2.72;;;0.80;;
52730;SDS011;38624;53.242;6.974;2023-04-02T12:32:23;3.67;;;0.80;;
52730;SDS011;38624;53.242;6.974;2023-04-02T12:34:53;5.10;;;0.98;;
52730;SDS011;38624;53.242;6.974;2023-04-02T12:37:25;1.90;;;0.90;;
52730;SDS011;38624;53.242;6.974;2023-04-02T12:39:53;2.45;;;0.82;;
52730;SDS011;38624;53.242;6.974;2023-04-02T12:42:28;2.53;;;0.93;;
52730;SDS011;38624;53.242;6.974;2023-04-02T12:44:58;2.13;;;0.82;;
52730;SDS011;38624;53.242;6.974;2023-04-02T12:47:25;1.63;;;1.10;;
52730;SDS011;38624;53.242;6.974;2023-04-02T12:49:52;1.70;;;0.80;;
52730;SDS011;38624;53.242;6.974;2023-04-02T12:52:20;2.15;;;0.90;;
52730;SDS011;38624;53.242;6.974;2023-04-02T12:54:53;1.67;;;0.90;;
52730;SDS011;38624;53.242;6.974;2023-04-02T12:59:52;2.25;;;1.00;;
52730;SDS011;38624;53.242;6.974;2023-04-02T13:02:23;2.47;;;0.82;;
52730;SDS011;38624;53.242;6.974;2023-04-02T13:04:54;3.20;;;1.10;;
52730;SDS011;38624;53.242;6.974;2023-04-02T13:07:24;2.28;;;0.93;;
52730;SDS011;38624;53.242;6.974;2023-04-02T13:09:54;1.48;;;0.88;;
52730;SDS011;38624;53.242;6.974;2023-04-02T13:12:26;2.47;;;1.02;;
52730;SDS011;38624;53.242;6.974;2023-04-02T13:14:56;2.30;;;1.17;;
52730;SDS011;38624;53.242;6.974;2023-04-02T13:17:36;3.05;;;1.10;;
52730;SDS011;38624;53.242;6.974;2023-04-02T13:22:58;2.05;;;1.10;;
52730;SDS011;38624;53.242;6.974;2023-04-02T13:25:27;1.60;;;0.90;;
52730;SDS011;38624;53.242;6.974;2023-04-02T13:27:55;2.97;;;0.60;;
52730;SDS011;38624;53.242;6.974;2023-04-02T13:30:21;2.60;;;1.30;;
52730;SDS011;38624;53.242;6.974;2023-04-02T13:32:49;1.50;;;0.85;;
52730;SDS011;38624;53.242;6.974;2023-04-02T13:35:15;2.40;;;0.90;;
52730;SDS011;38624;53.242;6.974;2023-04-02T13:37:40;1.88;;;0.82;;
52730;SDS011;38624;53.242;6.974;2023-04-02T13:40:07;1.88;;;0.90;;
52730;SDS011;38624;53.242;6.974;2023-04-02T13:42:37;1.73;;;0.90;;
52730;SDS011;38624;53.242;6.974;2023-04-02T13:45:04;1.55;;;0.70;;
52730;SDS011;38624;53.242;6.974;2023-04-02T13:47:53;2.42;;;0.90;;
52730;SDS011;38624;53.242;6.974;2023-04-02T13:50:21;2.90;;;0.80;;
52730;SDS011;38624;53.242;6.974;2023-04-02T13:52:52;2.42;;;0.70;;
52730;SDS011;38624;53.242;6.974;2023-04-02T13:55:21;1.98;;;0.70;;
52730;SDS011;38624;53.242;6.974;2023-04-02T13:57:49;1.42;;;0.70;;
52730;SDS011;38624;53.242;6.974;2023-04-02T14:00:16;0.82;;;0.68;;
52730;SDS011;38624;53.242;6.974;2023-04-02T14:02:43;1.77;;;0.75;;
52730;SDS011;38624;53.242;6.974;2023-04-02T14:11:01;2.30;;;0.90;;
52730;SDS011;38624;53.242;6.974;2023-04-02T14:23:04;3.10;;;1.67;;
52730;SDS011;38624;53.242;6.974;2023-04-02T14:28:27;1.98;;;1.30;;
52730;SDS011;38624;53.242;6.974;2023-04-02T14:33:38;4.97;;;2.35;;
52730;SDS011;38624;53.242;6.974;2023-04-02T14:41:34;1.77;;;0.98;;
52730;SDS011;38624;53.242;6.974;2023-04-02T14:44:09;4.47;;;1.90;;
52730;SDS011;38624;53.242;6.974;2023-04-02T14:46:37;8.23;;;4.22;;
52730;SDS011;38624;53.242;6.974;2023-04-02T14:52:08;12.60;;;4.65;;
52730;SDS011;38624;53.242;6.974;2023-04-02T14:54:38;8.48;;;4.90;;
52730;SDS011;38624;53.242;6.974;2023-04-02T15:02:53;2.00;;;1.27;;
52730;SDS011;38624;53.242;6.974;2023-04-02T15:05:25;1.77;;;0.93;;
52730;SDS011;38624;53.242;6.974;2023-04-02T15:13:24;1.80;;;0.80;;
52730;SDS011;38624;53.242;6.974;2023-04-02T15:16:24;2.47;;;0.77;;
52730;SDS011;38624;53.242;6.974;2023-04-02T15:18:54;1.92;;;0.82;;
52730;SDS011;38624;53.242;6.974;2023-04-02T15:26:21;4.25;;;0.90;;
52730;SDS011;38624;53.242;6.974;2023-04-02T15:29:02;2.30;;;1.10;;
52730;SDS011;38624;53.242;6.974;2023-04-02T15:31:39;3.92;;;0.90;;
52730;SDS011;38624;53.242;6.974;2023-04-02T15:37:26;1.00;;;0.65;;
52730;SDS011;38624;53.242;6.974;2023-04-02T15:42:28;2.50;;;0.90;;
52730;SDS011;38624;53.242;6.974;2023-04-02T15:45:11;1.70;;;0.80;;
52730;SDS011;38624;53.242;6.974;2023-04-02T15:50:51;1.55;;;0.75;;
52730;SDS011;38624;53.242;6.974;2023-04-02T15:53:38;1.98;;;0.75;;
52730;SDS011;38624;53.242;6.974;2023-04-02T16:07:39;1.45;;;0.90;;
52730;SDS011;38624;53.242;6.974;2023-04-02T16:12:55;2.67;;;1.30;;
52730;SDS011;38624;53.242;6.974;2023-04-02T16:15:23;1.35;;;0.80;;
52730;SDS011;38624;53.242;6.974;2023-04-02T16:18:30;2.42;;;0.80;;
52730;SDS011;38624;53.242;6.974;2023-04-02T16:21:10;1.35;;;0.75;;
52730;SDS011;38624;53.242;6.974;2023-04-02T16:23:46;1.95;;;1.00;;
52730;SDS011;38624;53.242;6.974;2023-04-02T16:36:51;1.92;;;1.02;;
52730;SDS011;38624;53.242;6.974;2023-04-02T16:39:47;2.17;;;0.90;;
52730;SDS011;38624;53.242;6.974;2023-04-02T16:48:08;1.98;;;0.93;;
52730;SDS011;38624;53.242;6.974;2023-04-02T16:50:52;1.98;;;0.90;;
52730;SDS011;38624;53.242;6.974;2023-04-02T17:04:23;2.03;;;1.10;;
52730;SDS011;38624;53.242;6.974;2023-04-02T17:12:49;1.75;;;0.98;;
52730;SDS011;38624;53.242;6.974;2023-04-02T17:15:23;2.53;;;1.60;;
52730;SDS011;38624;53.242;6.974;2023-04-02T17:17:55;1.98;;;1.15;;
52730;SDS011;38624;53.242;6.974;2023-04-02T17:20:22;2.22;;;1.10;;
52730;SDS011;38624;53.242;6.974;2023-04-02T17:22:50;1.60;;;0.90;;
52730;SDS011;38624;53.242;6.974;2023-04-02T17:27:46;2.92;;;1.00;;
52730;SDS011;38624;53.242;6.974;2023-04-02T17:30:15;2.08;;;0.82;;
52730;SDS011;38624;53.242;6.974;2023-04-02T17:32:44;1.98;;;0.98;;
52730;SDS011;38624;53.242;6.974;2023-04-02T17:40:37;2.95;;;1.20;;
52730;SDS011;38624;53.242;6.974;2023-04-02T17:43:41;2.58;;;1.20;;
52730;SDS011;38624;53.242;6.974;2023-04-02T17:52:17;2.38;;;1.05;;
52730;SDS011;38624;53.242;6.974;2023-04-02T18:03:53;2.80;;;1.10;;
52730;SDS011;38624;53.242;6.974;2023-04-02T18:06:18;2.50;;;1.10;;
52730;SDS011;38624;53.242;6.974;2023-04-02T18:14:28;3.13;;;1.08;;
52730;SDS011;38624;53.242;6.974;2023-04-02T18:31:52;5.70;;;2.22;;
52730;SDS011;38624;53.242;6.974;2023-04-02T18:35:14;15.05;;;4.85;;
52730;SDS011;38624;53.242;6.974;2023-04-02T18:40:42;17.48;;;4.90;;
52730;SDS011;38624;53.242;6.974;2023-04-02T18:43:24;15.25;;;5.93;;
52730;SDS011;38624;53.242;6.974;2023-04-02T18:46:03;14.13;;;4.93;;
52730;SDS011;38624;53.242;6.974;2023-04-02T18:48:37;15.98;;;5.25;;
52730;SDS011;38624;53.242;6.974;2023-04-02T18:51:15;14.05;;;4.85;;
52730;SDS011;38624;53.242;6.974;2023-04-02T18:53:46;13.88;;;4.30;;
52730;SDS011;38624;53.242;6.974;2023-04-02T18:56:19;15.68;;;4.78;;
52730;SDS011;38624;53.242;6.974;2023-04-02T19:01:20;4.95;;;2.85;;
52730;SDS011;38624;53.242;6.974;2023-04-02T19:03:53;4.18;;;2.58;;
52730;SDS011;38624;53.242;6.974;2023-04-02T19:06:28;3.90;;;1.92;;
52730;SDS011;38624;53.242;6.974;2023-04-02T19:09:09;3.38;;;1.98;;
52730;SDS011;38624;53.242;6.974;2023-04-02T19:11:42;3.40;;;1.90;;
52730;SDS011;38624;53.242;6.974;2023-04-02T19:14:12;4.90;;;2.17;;
52730;SDS011;38624;53.242;6.974;2023-04-02T19:16:58;3.92;;;2.20;;
52730;SDS011;38624;53.242;6.974;2023-04-02T19:19:36;4.40;;;2.35;;
52730;SDS011;38624;53.242;6.974;2023-04-02T19:22:09;3.40;;;1.90;;
52730;SDS011;38624;53.242;6.974;2023-04-02T19:30:22;6.93;;;2.30;;
52730;SDS011;38624;53.242;6.974;2023-04-02T19:43:34;3.17;;;1.50;;
52730;SDS011;38624;53.242;6.974;2023-04-02T19:45:59;2.85;;;1.55;;
52730;SDS011;38624;53.242;6.974;2023-04-02T19:48:29;2.33;;;1.45;;
52730;SDS011;38624;53.242;6.974;2023-04-02T19:51:28;4.05;;;1.80;;
52730;SDS011;38624;53.242;6.974;2023-04-02T19:53:54;3.00;;;1.42;;
52730;SDS011;38624;53.242;6.974;2023-04-02T19:56:20;3.17;;;1.70;;
52730;SDS011;38624;53.242;6.974;2023-04-02T19:58:46;2.75;;;1.50;;
52730;SDS011;38624;53.242;6.974;2023-04-02T20:01:12;4.22;;;1.63;;
52730;SDS011;38624;53.242;6.974;2023-04-02T20:03:38;4.17;;;1.70;;
52730;SDS011;38624;53.242;6.974;2023-04-02T20:06:04;2.63;;;1.30;;
52730;SDS011;38624;53.242;6.974;2023-04-02T20:08:30;3.58;;;1.70;;
52730;SDS011;38624;53.242;6.974;2023-04-02T20:10:56;6.10;;;2.33;;
52730;SDS011;38624;53.242;6.974;2023-04-02T20:13:25;4.35;;;2.25;;
52730;SDS011;38624;53.242;6.974;2023-04-02T20:15:51;4.17;;;1.97;;
52730;SDS011;38624;53.242;6.974;2023-04-02T20:18:17;3.00;;;1.60;;
52730;SDS011;38624;53.242;6.974;2023-04-02T20:20:47;3.70;;;1.50;;
52730;SDS011;38624;53.242;6.974;2023-04-02T20:23:13;4.53;;;1.67;;
52730;SDS011;38624;53.242;6.974;2023-04-02T20:25:44;3.70;;;1.60;;
52730;SDS011;38624;53.242;6.974;2023-04-02T20:28:11;3.22;;;1.70;;
52730;SDS011;38624;53.242;6.974;2023-04-02T20:30:37;3.35;;;1.30;;
52730;SDS011;38624;53.242;6.974;2023-04-02T20:33:02;2.78;;;1.50;;
52730;SDS011;38624;53.242;6.974;2023-04-02T20:35:28;5.30;;;1.58;;
52730;SDS011;38624;53.242;6.974;2023-04-02T20:37:58;7.47;;;1.95;;
52730;SDS011;38624;53.242;6.974;2023-04-02T20:40:24;2.50;;;1.50;;
52730;SDS011;38624;53.242;6.974;2023-04-02T20:42:50;3.72;;;1.77;;
52730;SDS011;38624;53.242;6.974;2023-04-02T20:45:17;5.65;;;1.80;;
52730;SDS011;38624;53.242;6.974;2023-04-02T20:47:43;3.50;;;1.50;;
52730;SDS011;38624;53.242;6.974;2023-04-02T20:50:08;2.95;;;1.60;;